sensor_id;sensor_type;location;lat;lon;timestamp;temperature;humidity
38237;DHT22;50101;49.438;11.098;2022-08-03T00:00:30;24.70;60.20
38237;DHT22;50101;49.438;11.098;2022-08-03T00:03:00;24.60;59.60
38237;DHT22;50101;49.438;11.098;2022-08-03T00:05:27;24.60;60.20
38237;DHT22;50101;49.438;11.098;2022-08-03T00:07:54;24.60;60.20
38237;DHT22;50101;49.438;11.098;2022-08-03T00:10:21;24.60;60.40
38237;DHT22;50101;49.438;11.098;2022-08-03T00:12:48;24.60;60.20
38237;DHT22;50101;49.438;11.098;2022-08-03T00:15:14;24.60;60.20
38237;DHT22;50101;49.438;11.098;2022-08-03T00:17:43;24.60;60.20
38237;DHT22;50101;49.438;11.098;2022-08-03T00:20:20;24.60;60.20
38237;DHT22;50101;49.438;11.098;2022-08-03T00:22:47;24.60;60.20
38237;DHT22;50101;49.438;11.098;2022-08-03T00:25:14;24.70;61.00
38237;DHT22;50101;49.438;11.098;2022-08-03T00:27:40;24.70;60.30
38237;DHT22;50101;49.438;11.098;2022-08-03T00:30:08;24.70;60.30
38237;DHT22;50101;49.438;11.098;2022-08-03T00:32:34;24.70;59.70
38237;DHT22;50101;49.438;11.098;2022-08-03T00:35:01;24.60;59.60
38237;DHT22;50101;49.438;11.098;2022-08-03T00:37:34;24.70;60.20
38237;DHT22;50101;49.438;11.098;2022-08-03T00:40:12;24.70;60.20
38237;DHT22;50101;49.438;11.098;2022-08-03T00:45:18;24.60;60.10
38237;DHT22;50101;49.438;11.098;2022-08-03T00:47:46;24.60;60.10
38237;DHT22;50101;49.438;11.098;2022-08-03T00:50:14;24.70;60.20
38237;DHT22;50101;49.438;11.098;2022-08-03T00:52:41;24.60;60.10
38237;DHT22;50101;49.438;11.098;2022-08-03T00:55:10;24.70;60.20
38237;DHT22;50101;49.438;11.098;2022-08-03T00:57:37;24.60;60.10
38237;DHT22;50101;49.438;11.098;2022-08-03T01:00:06;24.60;60.10
38237;DHT22;50101;49.438;11.098;2022-08-03T01:02:34;24.70;60.30
38237;DHT22;50101;49.438;11.098;2022-08-03T01:05:01;24.70;60.20
38237;DHT22;50101;49.438;11.098;2022-08-03T01:16:30;24.70;59.60
38237;DHT22;50101;49.438;11.098;2022-08-03T01:21:58;24.70;60.00
38237;DHT22;50101;49.438;11.098;2022-08-03T01:24:48;24.70;60.00
38237;DHT22;50101;49.438;11.098;2022-08-03T01:27:20;24.70;60.00
38237;DHT22;50101;49.438;11.098;2022-08-03T01:32:45;24.70;60.00
38237;DHT22;50101;49.438;11.098;2022-08-03T01:38:40;24.60;59.90
38237;DHT22;50101;49.438;11.098;2022-08-03T01:41:11;24.60;59.90
38237;DHT22;50101;49.438;11.098;2022-08-03T01:43:41;24.60;59.40
38237;DHT22;50101;49.438;11.098;2022-08-03T01:46:31;24.60;59.90
38237;DHT22;50101;49.438;11.098;2022-08-03T01:48:59;24.70;60.00
38237;DHT22;50101;49.438;11.098;2022-08-03T01:51:37;24.60;59.90
38237;DHT22;50101;49.438;11.098;2022-08-03T01:54:25;24.70;60.00
38237;DHT22;50101;49.438;11.098;2022-08-03T01:56:56;24.60;59.90
38237;DHT22;50101;49.438;11.098;2022-08-03T01:59:24;24.60;59.80
38237;DHT22;50101;49.438;11.098;2022-08-03T02:01:53;24.60;59.90
38237;DHT22;50101;49.438;11.098;2022-08-03T02:04:41;24.60;59.30
38237;DHT22;50101;49.438;11.098;2022-08-03T02:07:09;24.60;59.90
38237;DHT22;50101;49.438;11.098;2022-08-03T02:09:38;24.60;59.90
38237;DHT22;50101;49.438;11.098;2022-08-03T02:12:08;24.60;59.90
38237;DHT22;50101;49.438;11.098;2022-08-03T02:14:36;24.60;59.80
38237;DHT22;50101;49.438;11.098;2022-08-03T02:17:06;24.60;59.90
38237;DHT22;50101;49.438;11.098;2022-08-03T02:19:34;24.60;60.00
38237;DHT22;50101;49.438;11.098;2022-08-03T02:22:04;24.60;59.90
38237;DHT22;50101;49.438;11.098;2022-08-03T02:24:31;24.60;60.00
38237;DHT22;50101;49.438;11.098;2022-08-03T02:26:58;24.60;59.90
38237;DHT22;50101;49.438;11.098;2022-08-03T02:29:30;24.60;59.90
38237;DHT22;50101;49.438;11.098;2022-08-03T02:32:09;24.60;59.90
38237;DHT22;50101;49.438;11.098;2022-08-03T02:34:39;24.60;59.80
38237;DHT22;50101;49.438;11.098;2022-08-03T02:37:07;24.60;59.70
38237;DHT22;50101;49.438;11.098;2022-08-03T02:39:36;24.60;59.70
38237;DHT22;50101;49.438;11.098;2022-08-03T02:42:05;24.60;59.70
38237;DHT22;50101;49.438;11.098;2022-08-03T02:44:34;24.60;59.60
38237;DHT22;50101;49.438;11.098;2022-08-03T02:47:07;24.60;59.70
38237;DHT22;50101;49.438;11.098;2022-08-03T02:49:37;24.60;59.60
38237;DHT22;50101;49.438;11.098;2022-08-03T02:52:19;24.60;59.60
38237;DHT22;50101;49.438;11.098;2022-08-03T02:54:48;24.60;59.60
38237;DHT22;50101;49.438;11.098;2022-08-03T02:57:17;24.60;59.60
38237;DHT22;50101;49.438;11.098;2022-08-03T02:59:45;24.60;59.80
38237;DHT22;50101;49.438;11.098;2022-08-03T03:02:14;24.60;59.60
38237;DHT22;50101;49.438;11.098;2022-08-03T03:04:43;24.60;59.60
38237;DHT22;50101;49.438;11.098;2022-08-03T03:07:31;24.60;59.60
38237;DHT22;50101;49.438;11.098;2022-08-03T03:10:18;24.60;59.60
38237;DHT22;50101;49.438;11.098;2022-08-03T03:12:46;24.70;59.10
38237;DHT22;50101;49.438;11.098;2022-08-03T03:15:13;24.60;59.50
38237;DHT22;50101;49.438;11.098;2022-08-03T03:17:42;24.60;59.50
38237;DHT22;50101;49.438;11.098;2022-08-03T03:20:09;24.60;59.40
38237;DHT22;50101;49.438;11.098;2022-08-03T03:22:37;24.60;59.40
38237;DHT22;50101;49.438;11.098;2022-08-03T03:25:06;24.60;59.40
38237;DHT22;50101;49.438;11.098;2022-08-03T03:27:33;24.60;59.30
38237;DHT22;50101;49.438;11.098;2022-08-03T03:30:02;24.60;59.40
38237;DHT22;50101;49.438;11.098;2022-08-03T03:32:29;24.60;59.30
38237;DHT22;50101;49.438;11.098;2022-08-03T03:34:56;24.60;59.40
38237;DHT22;50101;49.438;11.098;2022-08-03T03:37:27;24.60;59.20
38237;DHT22;50101;49.438;11.098;2022-08-03T03:39:54;24.70;59.30
38237;DHT22;50101;49.438;11.098;2022-08-03T03:42:22;24.70;59.40
38237;DHT22;50101;49.438;11.098;2022-08-03T03:44:50;24.70;59.40
38237;DHT22;50101;49.438;11.098;2022-08-03T03:47:17;24.60;59.30
38237;DHT22;50101;49.438;11.098;2022-08-03T03:49:58;24.60;59.20
38237;DHT22;50101;49.438;11.098;2022-08-03T03:52:25;24.70;59.30
38237;DHT22;50101;49.438;11.098;2022-08-03T03:54:51;24.70;59.30
38237;DHT22;50101;49.438;11.098;2022-08-03T03:57:24;24.60;59.20
38237;DHT22;50101;49.438;11.098;2022-08-03T03:59:51;24.70;59.30
38237;DHT22;50101;49.438;11.098;2022-08-03T04:02:18;24.60;59.30
38237;DHT22;50101;49.438;11.098;2022-08-03T04:04:45;24.60;59.20
38237;DHT22;50101;49.438;11.098;2022-08-03T04:07:45;24.60;59.20
38237;DHT22;50101;49.438;11.098;2022-08-03T04:10:33;24.60;58.70
38237;DHT22;50101;49.438;11.098;2022-08-03T04:13:21;24.60;59.20
38237;DHT22;50101;49.438;11.098;2022-08-03T04:15:49;24.60;59.30
38237;DHT22;50101;49.438;11.098;2022-08-03T04:18:18;24.60;59.20
38237;DHT22;50101;49.438;11.098;2022-08-03T04:20:46;24.60;59.20
38237;DHT22;50101;49.438;11.098;2022-08-03T04:23:16;24.60;58.80
38237;DHT22;50101;49.438;11.098;2022-08-03T04:25:48;24.60;59.20
38237;DHT22;50101;49.438;11.098;2022-08-03T04:28:18;24.60;59.20
38237;DHT22;50101;49.438;11.098;2022-08-03T04:30:56;24.60;58.80
38237;DHT22;50101;49.438;11.098;2022-08-03T04:33:25;24.50;69.50
38237;DHT22;50101;49.438;11.098;2022-08-03T04:35:57;24.50;67.30
38237;DHT22;50101;49.438;11.098;2022-08-03T04:38:29;24.50;71.90
38237;DHT22;50101;49.438;11.098;2022-08-03T04:40:58;24.50;66.50
38237;DHT22;50101;49.438;11.098;2022-08-03T04:43:26;24.60;73.80
38237;DHT22;50101;49.438;11.098;2022-08-03T04:45:55;24.50;60.00
38237;DHT22;50101;49.438;11.098;2022-08-03T04:48:23;24.50;59.20
38237;DHT22;50101;49.438;11.098;2022-08-03T04:50:50;24.80;61.30
38237;DHT22;50101;49.438;11.098;2022-08-03T04:53:17;24.60;59.20
38237;DHT22;50101;49.438;11.098;2022-08-03T04:55:45;24.40;65.30
38237;DHT22;50101;49.438;11.098;2022-08-03T04:58:12;24.40;62.20
38237;DHT22;50101;49.438;11.098;2022-08-03T05:00:38;24.30;59.10
38237;DHT22;50101;49.438;11.098;2022-08-03T05:03:05;24.50;59.20
38237;DHT22;50101;49.438;11.098;2022-08-03T05:05:53;24.60;58.90
38237;DHT22;50101;49.438;11.098;2022-08-03T05:08:37;24.50;59.20
38237;DHT22;50101;49.438;11.098;2022-08-03T05:11:15;23.60;56.40
38237;DHT22;50101;49.438;11.098;2022-08-03T05:13:42;23.20;65.50
38237;DHT22;50101;49.438;11.098;2022-08-03T05:16:09;22.70;64.20
38237;DHT22;50101;49.438;11.098;2022-08-03T05:18:35;22.50;62.40
38237;DHT22;50101;49.438;11.098;2022-08-03T05:21:03;22.20;63.50
38237;DHT22;50101;49.438;11.098;2022-08-03T05:23:30;22.30;64.30
38237;DHT22;50101;49.438;11.098;2022-08-03T05:28:24;22.20;66.20
38237;DHT22;50101;49.438;11.098;2022-08-03T05:30:51;22.30;65.80
38237;DHT22;50101;49.438;11.098;2022-08-03T05:33:17;22.30;61.40
38237;DHT22;50101;49.438;11.098;2022-08-03T05:35:44;22.30;60.40
38237;DHT22;50101;49.438;11.098;2022-08-03T05:38:29;22.40;60.50
38237;DHT22;50101;49.438;11.098;2022-08-03T05:41:02;22.30;60.40
38237;DHT22;50101;49.438;11.098;2022-08-03T05:43:50;22.30;61.00
38237;DHT22;50101;49.438;11.098;2022-08-03T05:46:17;22.40;60.50
38237;DHT22;50101;49.438;11.098;2022-08-03T05:48:43;22.40;61.10
38237;DHT22;50101;49.438;11.098;2022-08-03T05:51:10;22.40;61.20
38237;DHT22;50101;49.438;11.098;2022-08-03T05:53:39;22.50;61.30
38237;DHT22;50101;49.438;11.098;2022-08-03T05:56:06;22.50;61.80
38237;DHT22;50101;49.438;11.098;2022-08-03T05:58:43;22.50;63.50
38237;DHT22;50101;49.438;11.098;2022-08-03T06:01:10;22.70;64.30
38237;DHT22;50101;49.438;11.098;2022-08-03T06:03:37;22.80;61.40
38237;DHT22;50101;49.438;11.098;2022-08-03T06:06:04;22.50;61.10
38237;DHT22;50101;49.438;11.098;2022-08-03T06:08:31;22.50;61.30
38237;DHT22;50101;49.438;11.098;2022-08-03T06:10:57;23.00;60.20
38237;DHT22;50101;49.438;11.098;2022-08-03T06:13:24;23.00;60.70
38237;DHT22;50101;49.438;11.098;2022-08-03T06:15:51;23.10;60.00
38237;DHT22;50101;49.438;11.098;2022-08-03T06:18:17;23.50;59.20
38237;DHT22;50101;49.438;11.098;2022-08-03T06:20:44;23.40;59.50
38237;DHT22;50101;49.438;11.098;2022-08-03T06:23:12;23.50;59.50
38237;DHT22;50101;49.438;11.098;2022-08-03T06:25:43;23.60;59.40
38237;DHT22;50101;49.438;11.098;2022-08-03T06:28:11;23.70;58.90
38237;DHT22;50101;49.438;11.098;2022-08-03T06:30:59;23.70;59.40
38237;DHT22;50101;49.438;11.098;2022-08-03T06:33:26;23.70;58.60
38237;DHT22;50101;49.438;11.098;2022-08-03T06:36:13;23.80;59.20
38237;DHT22;50101;49.438;11.098;2022-08-03T06:38:39;23.80;58.70
38237;DHT22;50101;49.438;11.098;2022-08-03T06:41:06;23.80;59.10
38237;DHT22;50101;49.438;11.098;2022-08-03T06:43:33;23.80;58.50
38237;DHT22;50101;49.438;11.098;2022-08-03T06:46:04;23.90;58.70
38237;DHT22;50101;49.438;11.098;2022-08-03T06:48:31;23.90;59.10
38237;DHT22;50101;49.438;11.098;2022-08-03T06:50:58;23.90;59.10
38237;DHT22;50101;49.438;11.098;2022-08-03T06:53:24;23.90;59.10
38237;DHT22;50101;49.438;11.098;2022-08-03T06:55:51;23.90;59.00
38237;DHT22;50101;49.438;11.098;2022-08-03T06:58:21;23.90;59.00
38237;DHT22;50101;49.438;11.098;2022-08-03T07:00:52;23.90;59.60
38237;DHT22;50101;49.438;11.098;2022-08-03T07:03:19;24.00;58.60
38237;DHT22;50101;49.438;11.098;2022-08-03T07:05:46;23.90;59.00
38237;DHT22;50101;49.438;11.098;2022-08-03T07:08:13;24.00;59.00
38237;DHT22;50101;49.438;11.098;2022-08-03T07:10:40;24.00;58.50
38237;DHT22;50101;49.438;11.098;2022-08-03T07:13:07;24.00;58.40
38237;DHT22;50101;49.438;11.098;2022-08-03T07:15:34;24.00;58.90
38237;DHT22;50101;49.438;11.098;2022-08-03T07:18:21;24.00;59.60
38237;DHT22;50101;49.438;11.098;2022-08-03T07:20:55;24.10;59.00
38237;DHT22;50101;49.438;11.098;2022-08-03T07:23:22;24.00;58.40
38237;DHT22;50101;49.438;11.098;2022-08-03T07:25:49;24.10;58.90
38237;DHT22;50101;49.438;11.098;2022-08-03T07:28:16;24.10;58.90
38237;DHT22;50101;49.438;11.098;2022-08-03T07:30:43;24.10;58.40
38237;DHT22;50101;49.438;11.098;2022-08-03T07:33:09;24.10;58.60
38237;DHT22;50101;49.438;11.098;2022-08-03T07:35:36;24.10;59.00
38237;DHT22;50101;49.438;11.098;2022-08-03T07:38:03;24.10;58.80
38237;DHT22;50101;49.438;11.098;2022-08-03T07:40:30;24.20;58.80
38237;DHT22;50101;49.438;11.098;2022-08-03T07:42:58;24.10;59.00
38237;DHT22;50101;49.438;11.098;2022-08-03T07:45:25;24.10;59.40
38237;DHT22;50101;49.438;11.098;2022-08-03T07:47:52;24.10;59.00
38237;DHT22;50101;49.438;11.098;2022-08-03T07:50:20;24.20;58.90
38237;DHT22;50101;49.438;11.098;2022-08-03T07:52:48;24.10;59.20
38237;DHT22;50101;49.438;11.098;2022-08-03T07:55:16;24.30;59.00
38237;DHT22;50101;49.438;11.098;2022-08-03T07:57:43;24.20;59.30
38237;DHT22;50101;49.438;11.098;2022-08-03T08:00:16;24.10;59.20
38237;DHT22;50101;49.438;11.098;2022-08-03T08:02:44;24.20;59.30
38237;DHT22;50101;49.438;11.098;2022-08-03T08:05:11;24.20;59.30
38237;DHT22;50101;49.438;11.098;2022-08-03T08:07:38;24.20;59.20
38237;DHT22;50101;49.438;11.098;2022-08-03T08:10:06;24.20;59.20
38237;DHT22;50101;49.438;11.098;2022-08-03T08:12:36;24.20;59.00
38237;DHT22;50101;49.438;11.098;2022-08-03T08:15:04;24.20;58.80
38237;DHT22;50101;49.438;11.098;2022-08-03T08:17:43;24.40;59.80
38237;DHT22;50101;49.438;11.098;2022-08-03T08:20:14;24.20;59.30
38237;DHT22;50101;49.438;11.098;2022-08-03T08:22:49;24.30;59.30
38237;DHT22;50101;49.438;11.098;2022-08-03T08:25:17;24.20;58.70
38237;DHT22;50101;49.438;11.098;2022-08-03T08:27:47;24.30;60.10
38237;DHT22;50101;49.438;11.098;2022-08-03T08:30:34;24.40;59.30
38237;DHT22;50101;49.438;11.098;2022-08-03T08:33:02;24.40;59.70
38237;DHT22;50101;49.438;11.098;2022-08-03T08:35:28;24.30;59.50
38237;DHT22;50101;49.438;11.098;2022-08-03T08:37:55;24.40;59.80
38237;DHT22;50101;49.438;11.098;2022-08-03T08:40:23;24.30;59.90
38237;DHT22;50101;49.438;11.098;2022-08-03T08:42:50;24.10;59.20
38237;DHT22;50101;49.438;11.098;2022-08-03T08:45:25;24.50;59.40
38237;DHT22;50101;49.438;11.098;2022-08-03T08:47:54;24.30;59.50
38237;DHT22;50101;49.438;11.098;2022-08-03T08:50:28;24.40;60.10
38237;DHT22;50101;49.438;11.098;2022-08-03T08:52:56;24.50;59.20
38237;DHT22;50101;49.438;11.098;2022-08-03T08:55:25;24.30;58.90
38237;DHT22;50101;49.438;11.098;2022-08-03T08:58:00;24.40;59.20
38237;DHT22;50101;49.438;11.098;2022-08-03T09:00:28;24.40;59.10
38237;DHT22;50101;49.438;11.098;2022-08-03T09:02:56;24.40;59.20
38237;DHT22;50101;49.438;11.098;2022-08-03T09:05:23;24.40;59.20
38237;DHT22;50101;49.438;11.098;2022-08-03T09:08:10;24.40;59.20
38237;DHT22;50101;49.438;11.098;2022-08-03T09:10:37;24.40;59.20
38237;DHT22;50101;49.438;11.098;2022-08-03T09:13:03;24.50;58.80
38237;DHT22;50101;49.438;11.098;2022-08-03T09:15:33;24.40;58.60
38237;DHT22;50101;49.438;11.098;2022-08-03T09:18:01;24.40;59.20
38237;DHT22;50101;49.438;11.098;2022-08-03T09:20:30;24.40;58.60
38237;DHT22;50101;49.438;11.098;2022-08-03T09:23:08;24.40;59.10
38237;DHT22;50101;49.438;11.098;2022-08-03T09:25:59;24.50;59.20
38237;DHT22;50101;49.438;11.098;2022-08-03T09:28:33;24.50;59.20
38237;DHT22;50101;49.438;11.098;2022-08-03T09:31:28;24.50;59.20
38237;DHT22;50101;49.438;11.098;2022-08-03T09:33:55;24.50;59.20
38237;DHT22;50101;49.438;11.098;2022-08-03T09:36:45;24.50;58.70
38237;DHT22;50101;49.438;11.098;2022-08-03T09:39:23;24.50;59.20
38237;DHT22;50101;49.438;11.098;2022-08-03T09:42:13;24.50;59.20
38237;DHT22;50101;49.438;11.098;2022-08-03T09:44:46;24.60;59.20
38237;DHT22;50101;49.438;11.098;2022-08-03T09:47:16;24.60;58.70
38237;DHT22;50101;49.438;11.098;2022-08-03T09:50:03;24.60;59.20
38237;DHT22;50101;49.438;11.098;2022-08-03T09:52:37;24.60;59.20
38237;DHT22;50101;49.438;11.098;2022-08-03T09:55:18;24.70;65.50
38237;DHT22;50101;49.438;11.098;2022-08-03T09:58:08;24.70;59.00
38237;DHT22;50101;49.438;11.098;2022-08-03T10:00:59;24.70;58.90
38237;DHT22;50101;49.438;11.098;2022-08-03T10:03:28;24.60;58.80
38237;DHT22;50101;49.438;11.098;2022-08-03T10:05:56;24.80;59.10
38237;DHT22;50101;49.438;11.098;2022-08-03T10:08:25;24.70;57.90
38237;DHT22;50101;49.438;11.098;2022-08-03T10:10:52;24.70;58.80
38237;DHT22;50101;49.438;11.098;2022-08-03T10:13:23;24.70;58.30
38237;DHT22;50101;49.438;11.098;2022-08-03T10:15:50;24.80;58.20
38237;DHT22;50101;49.438;11.098;2022-08-03T10:18:37;24.70;58.50
38237;DHT22;50101;49.438;11.098;2022-08-03T10:21:07;24.80;58.40
38237;DHT22;50101;49.438;11.098;2022-08-03T10:23:37;24.80;60.10
38237;DHT22;50101;49.438;11.098;2022-08-03T10:26:06;24.80;58.40
38237;DHT22;50101;49.438;11.098;2022-08-03T10:28:35;24.80;58.10
38237;DHT22;50101;49.438;11.098;2022-08-03T10:31:09;24.90;69.50
38237;DHT22;50101;49.438;11.098;2022-08-03T10:33:39;24.70;65.10
38237;DHT22;50101;49.438;11.098;2022-08-03T10:36:22;24.50;59.20
38237;DHT22;50101;49.438;11.098;2022-08-03T10:38:51;24.30;57.60
38237;DHT22;50101;49.438;11.098;2022-08-03T10:41:20;24.70;60.40
38237;DHT22;50101;49.438;11.098;2022-08-03T10:43:57;24.70;57.90
38237;DHT22;50101;49.438;11.098;2022-08-03T10:46:25;24.70;58.40
38237;DHT22;50101;49.438;11.098;2022-08-03T10:48:52;24.70;58.00
38237;DHT22;50101;49.438;11.098;2022-08-03T10:51:20;24.70;58.50
38237;DHT22;50101;49.438;11.098;2022-08-03T10:53:47;24.70;58.50
38237;DHT22;50101;49.438;11.098;2022-08-03T11:02:13;24.70;58.40
38237;DHT22;50101;49.438;11.098;2022-08-03T11:04:40;24.70;58.40
38237;DHT22;50101;49.438;11.098;2022-08-03T11:07:17;24.80;58.50
38237;DHT22;50101;49.438;11.098;2022-08-03T11:09:52;24.80;58.90
38237;DHT22;50101;49.438;11.098;2022-08-03T11:15:03;24.80;58.50
38237;DHT22;50101;49.438;11.098;2022-08-03T11:17:32;24.80;58.40
38237;DHT22;50101;49.438;11.098;2022-08-03T11:20:46;24.80;58.50
38237;DHT22;50101;49.438;11.098;2022-08-03T11:23:15;24.90;59.20
38237;DHT22;50101;49.438;11.098;2022-08-03T11:28:34;24.80;58.90
38237;DHT22;50101;49.438;11.098;2022-08-03T11:34:15;24.80;58.60
38237;DHT22;50101;49.438;11.098;2022-08-03T11:39:50;24.80;58.20
38237;DHT22;50101;49.438;11.098;2022-08-03T11:44:51;24.80;58.50
38237;DHT22;50101;49.438;11.098;2022-08-03T11:47:20;24.80;58.60
38237;DHT22;50101;49.438;11.098;2022-08-03T11:49:49;24.80;59.20
38237;DHT22;50101;49.438;11.098;2022-08-03T11:52:17;25.00;58.40
38237;DHT22;50101;49.438;11.098;2022-08-03T11:54:53;24.80;57.90
38237;DHT22;50101;49.438;11.098;2022-08-03T11:57:32;24.80;57.90
38237;DHT22;50101;49.438;11.098;2022-08-03T12:00:20;24.80;58.00
38237;DHT22;50101;49.438;11.098;2022-08-03T12:02:59;24.80;58.50
38237;DHT22;50101;49.438;11.098;2022-08-03T12:05:44;24.80;58.00
38237;DHT22;50101;49.438;11.098;2022-08-03T12:08:37;24.80;59.10
38237;DHT22;50101;49.438;11.098;2022-08-03T12:11:06;24.80;58.50
38237;DHT22;50101;49.438;11.098;2022-08-03T12:13:46;24.80;58.50
38237;DHT22;50101;49.438;11.098;2022-08-03T12:16:34;24.80;58.50
38237;DHT22;50101;49.438;11.098;2022-08-03T12:19:04;24.90;57.90
38237;DHT22;50101;49.438;11.098;2022-08-03T12:24:03;25.00;86.90
38237;DHT22;50101;49.438;11.098;2022-08-03T12:26:42;25.10;58.00
38237;DHT22;50101;49.438;11.098;2022-08-03T12:29:22;25.00;58.40
38237;DHT22;50101;49.438;11.098;2022-08-03T12:31:51;25.00;58.20
38237;DHT22;50101;49.438;11.098;2022-08-03T12:34:18;25.20;70.20
38237;DHT22;50101;49.438;11.098;2022-08-03T12:36:52;24.80;64.90
38237;DHT22;50101;49.438;11.098;2022-08-03T12:39:23;26.10;74.40
38237;DHT22;50101;49.438;11.098;2022-08-03T12:41:54;24.60;65.60
38237;DHT22;50101;49.438;11.098;2022-08-03T12:44:29;25.00;58.50
38237;DHT22;50101;49.438;11.098;2022-08-03T12:46:57;25.00;58.40
38237;DHT22;50101;49.438;11.098;2022-08-03T12:49:25;25.00;58.40
38237;DHT22;50101;49.438;11.098;2022-08-03T12:54:20;25.00;59.00
38237;DHT22;50101;49.438;11.098;2022-08-03T12:59:28;25.00;59.00
38237;DHT22;50101;49.438;11.098;2022-08-03T13:02:02;25.00;58.40
38237;DHT22;50101;49.438;11.098;2022-08-03T13:04:35;25.00;59.20
38237;DHT22;50101;49.438;11.098;2022-08-03T13:07:06;25.00;58.50
38237;DHT22;50101;49.438;11.098;2022-08-03T13:09:51;25.00;59.00
38237;DHT22;50101;49.438;11.098;2022-08-03T13:12:21;25.10;58.90
38237;DHT22;50101;49.438;11.098;2022-08-03T13:14:50;25.10;64.90
38237;DHT22;50101;49.438;11.098;2022-08-03T13:17:18;25.00;58.50
38237;DHT22;50101;49.438;11.098;2022-08-03T13:19:46;25.00;59.60
38237;DHT22;50101;49.438;11.098;2022-08-03T13:22:23;25.10;58.60
38237;DHT22;50101;49.438;11.098;2022-08-03T13:24:51;25.10;59.00
38237;DHT22;50101;49.438;11.098;2022-08-03T13:27:19;25.10;59.00
38237;DHT22;50101;49.438;11.098;2022-08-03T13:30:08;25.10;59.10
38237;DHT22;50101;49.438;11.098;2022-08-03T13:32:35;25.10;59.00
38237;DHT22;50101;49.438;11.098;2022-08-03T13:35:02;25.00;58.90
38237;DHT22;50101;49.438;11.098;2022-08-03T13:37:30;25.10;58.90
38237;DHT22;50101;49.438;11.098;2022-08-03T13:39:58;25.00;59.00
38237;DHT22;50101;49.438;11.098;2022-08-03T13:42:30;25.10;59.00
38237;DHT22;50101;49.438;11.098;2022-08-03T13:44:58;25.00;58.90
38237;DHT22;50101;49.438;11.098;2022-08-03T13:47:25;25.10;59.00
38237;DHT22;50101;49.438;11.098;2022-08-03T13:49:52;25.10;59.10
38237;DHT22;50101;49.438;11.098;2022-08-03T13:52:29;25.10;59.00
38237;DHT22;50101;49.438;11.098;2022-08-03T13:54:55;25.10;59.00
38237;DHT22;50101;49.438;11.098;2022-08-03T13:57:22;25.10;59.10
38237;DHT22;50101;49.438;11.098;2022-08-03T14:00:09;25.10;58.50
38237;DHT22;50101;49.438;11.098;2022-08-03T14:02:36;25.10;59.10
38237;DHT22;50101;49.438;11.098;2022-08-03T14:05:03;25.10;59.10
38237;DHT22;50101;49.438;11.098;2022-08-03T14:07:30;25.10;59.30
38237;DHT22;50101;49.438;11.098;2022-08-03T14:09:57;25.10;59.20
38237;DHT22;50101;49.438;11.098;2022-08-03T14:12:24;25.10;59.20
38237;DHT22;50101;49.438;11.098;2022-08-03T14:14:50;25.10;59.10
38237;DHT22;50101;49.438;11.098;2022-08-03T14:17:17;25.10;59.10
38237;DHT22;50101;49.438;11.098;2022-08-03T14:19:44;25.10;59.20
38237;DHT22;50101;49.438;11.098;2022-08-03T14:22:19;25.10;59.10
38237;DHT22;50101;49.438;11.098;2022-08-03T14:24:46;25.10;59.10
38237;DHT22;50101;49.438;11.098;2022-08-03T14:27:14;25.20;59.30
38237;DHT22;50101;49.438;11.098;2022-08-03T14:29:41;25.10;59.70
38237;DHT22;50101;49.438;11.098;2022-08-03T14:32:08;25.20;59.50
38237;DHT22;50101;49.438;11.098;2022-08-03T14:34:39;25.20;59.60
38237;DHT22;50101;49.438;11.098;2022-08-03T14:37:06;25.20;59.60
38237;DHT22;50101;49.438;11.098;2022-08-03T14:39:33;25.20;59.90
38237;DHT22;50101;49.438;11.098;2022-08-03T14:42:20;25.20;61.40
38237;DHT22;50101;49.438;11.098;2022-08-03T14:44:47;25.20;60.10
38237;DHT22;50101;49.438;11.098;2022-08-03T14:47:13;25.20;60.30
38237;DHT22;50101;49.438;11.098;2022-08-03T14:49:41;25.20;60.60
38237;DHT22;50101;49.438;11.098;2022-08-03T14:52:28;25.30;60.80
38237;DHT22;50101;49.438;11.098;2022-08-03T14:54:58;25.30;60.40
38237;DHT22;50101;49.438;11.098;2022-08-03T14:57:28;25.30;60.40
38237;DHT22;50101;49.438;11.098;2022-08-03T14:59:54;25.30;60.50
38237;DHT22;50101;49.438;11.098;2022-08-03T15:02:23;25.20;59.90
38237;DHT22;50101;49.438;11.098;2022-08-03T15:04:51;25.20;60.80
38237;DHT22;50101;49.438;11.098;2022-08-03T15:07:18;25.20;60.50
38237;DHT22;50101;49.438;11.098;2022-08-03T15:09:46;25.20;60.20
38237;DHT22;50101;49.438;11.098;2022-08-03T15:12:13;25.30;61.00
38237;DHT22;50101;49.438;11.098;2022-08-03T15:14:39;25.20;60.70
38237;DHT22;50101;49.438;11.098;2022-08-03T15:17:06;25.20;60.90
38237;DHT22;50101;49.438;11.098;2022-08-03T15:19:33;25.20;60.90
38237;DHT22;50101;49.438;11.098;2022-08-03T15:22:20;25.30;61.10
38237;DHT22;50101;49.438;11.098;2022-08-03T15:24:51;25.30;60.80
38237;DHT22;50101;49.438;11.098;2022-08-03T15:27:17;25.30;60.70
38237;DHT22;50101;49.438;11.098;2022-08-03T15:29:44;25.30;60.80
38237;DHT22;50101;49.438;11.098;2022-08-03T15:32:32;25.20;60.60
38237;DHT22;50101;49.438;11.098;2022-08-03T15:34:59;25.20;60.60
38237;DHT22;50101;49.438;11.098;2022-08-03T15:37:26;25.20;60.60
38237;DHT22;50101;49.438;11.098;2022-08-03T15:39:54;25.20;60.40
38237;DHT22;50101;49.438;11.098;2022-08-03T15:42:26;25.20;60.50
38237;DHT22;50101;49.438;11.098;2022-08-03T15:44:53;25.20;60.40
38237;DHT22;50101;49.438;11.098;2022-08-03T15:47:20;25.20;60.40
38237;DHT22;50101;49.438;11.098;2022-08-03T15:49:47;25.20;60.40
38237;DHT22;50101;49.438;11.098;2022-08-03T15:52:14;25.20;60.30
38237;DHT22;50101;49.438;11.098;2022-08-03T15:54:41;25.20;60.50
38237;DHT22;50101;49.438;11.098;2022-08-03T15:57:07;25.20;60.60
38237;DHT22;50101;49.438;11.098;2022-08-03T15:59:34;25.30;61.00
38237;DHT22;50101;49.438;11.098;2022-08-03T16:02:01;25.20;61.40
38237;DHT22;50101;49.438;11.098;2022-08-03T16:04:27;25.20;61.10
38237;DHT22;50101;49.438;11.098;2022-08-03T16:06:54;25.20;61.40
38237;DHT22;50101;49.438;11.098;2022-08-03T16:09:21;25.20;61.50
38237;DHT22;50101;49.438;11.098;2022-08-03T16:12:08;25.30;61.20
38237;DHT22;50101;49.438;11.098;2022-08-03T16:14:43;25.20;60.70
38237;DHT22;50101;49.438;11.098;2022-08-03T16:17:19;25.20;60.70
38237;DHT22;50101;49.438;11.098;2022-08-03T16:19:47;25.20;61.00
38237;DHT22;50101;49.438;11.098;2022-08-03T16:22:14;25.20;60.70
38237;DHT22;50101;49.438;11.098;2022-08-03T16:24:45;25.20;60.80
38237;DHT22;50101;49.438;11.098;2022-08-03T16:27:12;25.20;60.80
38237;DHT22;50101;49.438;11.098;2022-08-03T16:29:58;25.20;60.70